sensor_id;sensor_type;location;lat;lon;timestamp;P1;durP1;ratioP1;P2;durP2;ratioP2
73650;SDS011;61944;52.538;6.108;2023-02-28T00:02:24;6.32;;;2.83;;
73650;SDS011;61944;52.538;6.108;2023-02-28T00:04:49;8.68;;;3.03;;
73650;SDS011;61944;52.538;6.108;2023-02-28T00:07:18;3.35;;;2.70;;
73650;SDS011;61944;52.538;6.108;2023-02-28T00:09:44;8.23;;;3.33;;
73650;SDS011;61944;52.538;6.108;2023-02-28T00:12:09;6.30;;;3.30;;
73650;SDS011;61944;52.538;6.108;2023-02-28T00:14:35;5.22;;;2.67;;
73650;SDS011;61944;52.538;6.108;2023-02-28T00:17:00;5.70;;;2.65;;
73650;SDS011;61944;52.538;6.108;2023-02-28T00:19:26;6.90;;;3.40;;
73650;SDS011;61944;52.538;6.108;2023-02-28T00:21:51;7.43;;;3.53;;
73650;SDS011;61944;52.538;6.108;2023-02-28T00:24:16;4.32;;;2.53;;
73650;SDS011;61944;52.538;6.108;2023-02-28T00:26:42;9.15;;;2.85;;
73650;SDS011;61944;52.538;6.108;2023-02-28T00:29:07;4.63;;;2.70;;
73650;SDS011;61944;52.538;6.108;2023-02-28T00:31:32;8.45;;;3.50;;
73650;SDS011;61944;52.538;6.108;2023-02-28T00:33:58;11.90;;;4.00;;
73650;SDS011;61944;52.538;6.108;2023-02-28T00:36:23;4.97;;;2.75;;
73650;SDS011;61944;52.538;6.108;2023-02-28T00:38:48;8.05;;;3.95;;
73650;SDS011;61944;52.538;6.108;2023-02-28T00:41:14;6.20;;;3.17;;
73650;SDS011;61944;52.538;6.108;2023-02-28T00:43:39;6.00;;;2.92;;
73650;SDS011;61944;52.538;6.108;2023-02-28T00:46:05;3.80;;;3.08;;
73650;SDS011;61944;52.538;6.108;2023-02-28T00:48:31;6.10;;;3.35;;
73650;SDS011;61944;52.538;6.108;2023-02-28T00:50:57;6.43;;;4.53;;
73650;SDS011;61944;52.538;6.108;2023-02-28T00:53:22;3.35;;;2.88;;
73650;SDS011;61944;52.538;6.108;2023-02-28T00:55:48;5.90;;;3.53;;
73650;SDS011;61944;52.538;6.108;2023-02-28T00:58:14;9.57;;;3.33;;
73650;SDS011;61944;52.538;6.108;2023-02-28T01:00:40;7.35;;;3.53;;
73650;SDS011;61944;52.538;6.108;2023-02-28T01:03:05;5.80;;;2.88;;
73650;SDS011;61944;52.538;6.108;2023-02-28T01:05:30;3.97;;;2.78;;
73650;SDS011;61944;52.538;6.108;2023-02-28T01:07:56;10.68;;;3.58;;
73650;SDS011;61944;52.538;6.108;2023-02-28T01:10:21;8.85;;;3.58;;
73650;SDS011;61944;52.538;6.108;2023-02-28T01:12:47;4.65;;;2.70;;
73650;SDS011;61944;52.538;6.108;2023-02-28T01:15:12;7.03;;;3.58;;
73650;SDS011;61944;52.538;6.108;2023-02-28T01:17:37;9.35;;;3.58;;
73650;SDS011;61944;52.538;6.108;2023-02-28T01:20:03;5.32;;;3.28;;
73650;SDS011;61944;52.538;6.108;2023-02-28T01:22:29;7.38;;;4.10;;
73650;SDS011;61944;52.538;6.108;2023-02-28T01:24:54;9.55;;;4.53;;
73650;SDS011;61944;52.538;6.108;2023-02-28T01:27:20;7.13;;;3.20;;
73650;SDS011;61944;52.538;6.108;2023-02-28T01:29:45;5.85;;;2.65;;
73650;SDS011;61944;52.538;6.108;2023-02-28T01:32:10;6.78;;;4.50;;
73650;SDS011;61944;52.538;6.108;2023-02-28T01:34:36;5.45;;;3.35;;
73650;SDS011;61944;52.538;6.108;2023-02-28T01:37:01;5.00;;;3.33;;
73650;SDS011;61944;52.538;6.108;2023-02-28T01:39:28;5.38;;;3.92;;
73650;SDS011;61944;52.538;6.108;2023-02-28T01:41:54;5.85;;;4.28;;
73650;SDS011;61944;52.538;6.108;2023-02-28T01:47:25;7.15;;;3.65;;
73650;SDS011;61944;52.538;6.108;2023-02-28T01:49:54;6.93;;;4.38;;
73650;SDS011;61944;52.538;6.108;2023-02-28T01:52:20;4.50;;;2.83;;
73650;SDS011;61944;52.538;6.108;2023-02-28T01:54:48;8.73;;;3.92;;
73650;SDS011;61944;52.538;6.108;2023-02-28T01:57:18;4.70;;;2.95;;
73650;SDS011;61944;52.538;6.108;2023-02-28T02:00:00;8.30;;;2.80;;
73650;SDS011;61944;52.538;6.108;2023-02-28T02:02:32;3.20;;;2.90;;
73650;SDS011;61944;52.538;6.108;2023-02-28T02:05:00;7.45;;;3.83;;
73650;SDS011;61944;52.538;6.108;2023-02-28T02:07:31;3.80;;;2.85;;
73650;SDS011;61944;52.538;6.108;2023-02-28T02:10:21;4.95;;;2.67;;
73650;SDS011;61944;52.538;6.108;2023-02-28T02:15:43;7.75;;;3.22;;
73650;SDS011;61944;52.538;6.108;2023-02-28T02:26:39;7.20;;;4.40;;
73650;SDS011;61944;52.538;6.108;2023-02-28T02:35:13;8.10;;;4.38;;
73650;SDS011;61944;52.538;6.108;2023-02-28T02:40:38;6.43;;;3.72;;
73650;SDS011;61944;52.538;6.108;2023-02-28T02:43:30;6.82;;;3.63;;
73650;SDS011;61944;52.538;6.108;2023-02-28T02:46:34;6.53;;;4.20;;
73650;SDS011;61944;52.538;6.108;2023-02-28T02:48:55;9.40;;;5.18;;
73650;SDS011;61944;52.538;6.108;2023-02-28T02:51:24;9.77;;;5.95;;
73650;SDS011;61944;52.538;6.108;2023-02-28T02:53:54;12.63;;;4.55;;
73650;SDS011;61944;52.538;6.108;2023-02-28T02:56:24;9.98;;;5.22;;
73650;SDS011;61944;52.538;6.108;2023-02-28T02:58:54;11.45;;;5.20;;
73650;SDS011;61944;52.538;6.108;2023-02-28T03:01:24;9.32;;;5.82;;
73650;SDS011;61944;52.538;6.108;2023-02-28T03:04:26;10.35;;;5.47;;
73650;SDS011;61944;52.538;6.108;2023-02-28T03:06:45;8.20;;;5.35;;
73650;SDS011;61944;52.538;6.108;2023-02-28T03:09:11;11.85;;;5.82;;
73650;SDS011;61944;52.538;6.108;2023-02-28T03:11:37;10.95;;;6.55;;
73650;SDS011;61944;52.538;6.108;2023-02-28T03:14:09;8.60;;;5.10;;
73650;SDS011;61944;52.538;6.108;2023-02-28T03:19:47;17.60;;;8.38;;
73650;SDS011;61944;52.538;6.108;2023-02-28T03:27:25;12.40;;;7.72;;
73650;SDS011;61944;52.538;6.108;2023-02-28T03:30:04;11.38;;;7.20;;
73650;SDS011;61944;52.538;6.108;2023-02-28T03:32:36;19.20;;;8.55;;
73650;SDS011;61944;52.538;6.108;2023-02-28T03:35:40;12.48;;;7.13;;
73650;SDS011;61944;52.538;6.108;2023-02-28T03:38:18;15.07;;;8.95;;
73650;SDS011;61944;52.538;6.108;2023-02-28T03:40:51;13.05;;;7.07;;
73650;SDS011;61944;52.538;6.108;2023-02-28T03:43:29;11.52;;;6.97;;
73650;SDS011;61944;52.538;6.108;2023-02-28T03:45:57;13.18;;;7.38;;
73650;SDS011;61944;52.538;6.108;2023-02-28T03:48:42;15.88;;;7.82;;
73650;SDS011;61944;52.538;6.108;2023-02-28T03:51:11;15.32;;;8.70;;
73650;SDS011;61944;52.538;6.108;2023-02-28T03:53:44;12.75;;;8.18;;
73650;SDS011;61944;52.538;6.108;2023-02-28T03:56:19;13.10;;;7.93;;
73650;SDS011;61944;52.538;6.108;2023-02-28T03:58:57;13.38;;;7.53;;
73650;SDS011;61944;52.538;6.108;2023-02-28T04:01:37;14.32;;;7.70;;
73650;SDS011;61944;52.538;6.108;2023-02-28T04:04:06;14.43;;;9.82;;
73650;SDS011;61944;52.538;6.108;2023-02-28T04:06:33;12.30;;;8.23;;
73650;SDS011;61944;52.538;6.108;2023-02-28T04:08:59;15.18;;;8.32;;
73650;SDS011;61944;52.538;6.108;2023-02-28T04:13:59;14.25;;;8.10;;
73650;SDS011;61944;52.538;6.108;2023-02-28T04:16:25;12.40;;;8.07;;
73650;SDS011;61944;52.538;6.108;2023-02-28T04:18:50;13.18;;;8.20;;
73650;SDS011;61944;52.538;6.108;2023-02-28T04:21:16;13.18;;;8.02;;
73650;SDS011;61944;52.538;6.108;2023-02-28T04:23:45;18.02;;;8.40;;
73650;SDS011;61944;52.538;6.108;2023-02-28T04:26:11;13.10;;;7.75;;
73650;SDS011;61944;52.538;6.108;2023-02-28T04:28:36;15.38;;;9.10;;
73650;SDS011;61944;52.538;6.108;2023-02-28T04:31:03;16.80;;;8.85;;
73650;SDS011;61944;52.538;6.108;2023-02-28T04:33:30;14.48;;;8.48;;
73650;SDS011;61944;52.538;6.108;2023-02-28T04:36:01;19.67;;;10.18;;
73650;SDS011;61944;52.538;6.108;2023-02-28T04:38:34;14.80;;;9.13;;
73650;SDS011;61944;52.538;6.108;2023-02-28T04:41:01;15.27;;;9.35;;
73650;SDS011;61944;52.538;6.108;2023-02-28T04:43:27;16.80;;;9.80;;
73650;SDS011;61944;52.538;6.108;2023-02-28T04:45:54;14.13;;;7.95;;
73650;SDS011;61944;52.538;6.108;2023-02-28T04:48:22;15.25;;;8.63;;
73650;SDS011;61944;52.538;6.108;2023-02-28T04:50:52;14.85;;;8.10;;
73650;SDS011;61944;52.538;6.108;2023-02-28T04:53:18;15.27;;;8.35;;
73650;SDS011;61944;52.538;6.108;2023-02-28T04:55:44;10.98;;;7.57;;
73650;SDS011;61944;52.538;6.108;2023-02-28T04:58:10;9.00;;;4.55;;
73650;SDS011;61944;52.538;6.108;2023-02-28T05:00:36;9.65;;;6.38;;
73650;SDS011;61944;52.538;6.108;2023-02-28T05:03:01;6.70;;;4.90;;
73650;SDS011;61944;52.538;6.108;2023-02-28T05:05:27;7.60;;;5.25;;
73650;SDS011;61944;52.538;6.108;2023-02-28T05:07:52;9.65;;;4.85;;
73650;SDS011;61944;52.538;6.108;2023-02-28T05:10:18;8.98;;;4.10;;
73650;SDS011;61944;52.538;6.108;2023-02-28T05:12:44;7.60;;;4.03;;
73650;SDS011;61944;52.538;6.108;2023-02-28T05:15:12;7.05;;;4.25;;
73650;SDS011;61944;52.538;6.108;2023-02-28T05:17:39;8.80;;;4.72;;
73650;SDS011;61944;52.538;6.108;2023-02-28T05:20:04;6.13;;;3.35;;
73650;SDS011;61944;52.538;6.108;2023-02-28T05:22:30;6.40;;;3.90;;
73650;SDS011;61944;52.538;6.108;2023-02-28T05:24:55;8.02;;;3.55;;
73650;SDS011;61944;52.538;6.108;2023-02-28T05:27:21;5.97;;;3.90;;
73650;SDS011;61944;52.538;6.108;2023-02-28T05:29:46;5.45;;;3.28;;
73650;SDS011;61944;52.538;6.108;2023-02-28T05:32:12;5.93;;;3.30;;
73650;SDS011;61944;52.538;6.108;2023-02-28T05:34:38;5.55;;;3.45;;
73650;SDS011;61944;52.538;6.108;2023-02-28T05:37:04;5.50;;;3.63;;
73650;SDS011;61944;52.538;6.108;2023-02-28T05:39:30;5.45;;;3.13;;
73650;SDS011;61944;52.538;6.108;2023-02-28T05:41:56;7.55;;;3.78;;
73650;SDS011;61944;52.538;6.108;2023-02-28T05:44:22;6.35;;;3.42;;
73650;SDS011;61944;52.538;6.108;2023-02-28T05:46:47;5.63;;;3.92;;
73650;SDS011;61944;52.538;6.108;2023-02-28T05:49:12;5.63;;;3.15;;
73650;SDS011;61944;52.538;6.108;2023-02-28T05:51:38;14.32;;;3.60;;
73650;SDS011;61944;52.538;6.108;2023-02-28T05:54:04;6.47;;;3.08;;
73650;SDS011;61944;52.538;6.108;2023-02-28T05:56:30;4.35;;;2.95;;
73650;SDS011;61944;52.538;6.108;2023-02-28T05:58:56;6.00;;;3.53;;
73650;SDS011;61944;52.538;6.108;2023-02-28T06:01:40;5.03;;;3.60;;
73650;SDS011;61944;52.538;6.108;2023-02-28T06:04:13;6.82;;;3.60;;
73650;SDS011;61944;52.538;6.108;2023-02-28T06:06:42;4.63;;;3.25;;
73650;SDS011;61944;52.538;6.108;2023-02-28T06:09:14;6.82;;;3.67;;
73650;SDS011;61944;52.538;6.108;2023-02-28T06:11:40;4.90;;;3.28;;
73650;SDS011;61944;52.538;6.108;2023-02-28T06:14:06;4.75;;;3.38;;
73650;SDS011;61944;52.538;6.108;2023-02-28T06:16:33;6.85;;;4.40;;
73650;SDS011;61944;52.538;6.108;2023-02-28T06:19:01;3.85;;;3.05;;
73650;SDS011;61944;52.538;6.108;2023-02-28T06:21:28;4.65;;;4.03;;
73650;SDS011;61944;52.538;6.108;2023-02-28T06:23:54;6.72;;;3.45;;
73650;SDS011;61944;52.538;6.108;2023-02-28T06:26:21;4.20;;;3.22;;
73650;SDS011;61944;52.538;6.108;2023-02-28T06:28:46;7.63;;;3.38;;
73650;SDS011;61944;52.538;6.108;2023-02-28T06:31:13;6.78;;;3.85;;
73650;SDS011;61944;52.538;6.108;2023-02-28T06:33:40;6.00;;;3.60;;
73650;SDS011;61944;52.538;6.108;2023-02-28T06:36:07;6.00;;;3.92;;
73650;SDS011;61944;52.538;6.108;2023-02-28T06:38:33;5.95;;;3.47;;
73650;SDS011;61944;52.538;6.108;2023-02-28T06:40:59;4.80;;;2.97;;
73650;SDS011;61944;52.538;6.108;2023-02-28T06:43:27;4.90;;;3.78;;
73650;SDS011;61944;52.538;6.108;2023-02-28T06:46:00;6.40;;;3.35;;
73650;SDS011;61944;52.538;6.108;2023-02-28T06:48:27;5.18;;;3.45;;
73650;SDS011;61944;52.538;6.108;2023-02-28T06:51:01;5.97;;;3.30;;
73650;SDS011;61944;52.538;6.108;2023-02-28T06:53:34;6.78;;;4.78;;
73650;SDS011;61944;52.538;6.108;2023-02-28T06:55:59;5.05;;;3.47;;
73650;SDS011;61944;52.538;6.108;2023-02-28T06:58:29;6.20;;;3.42;;
73650;SDS011;61944;52.538;6.108;2023-02-28T07:00:54;6.45;;;3.55;;
73650;SDS011;61944;52.538;6.108;2023-02-28T07:03:19;5.55;;;3.55;;
73650;SDS011;61944;52.538;6.108;2023-02-28T07:05:45;7.40;;;3.70;;
73650;SDS011;61944;52.538;6.108;2023-02-28T07:08:10;5.03;;;3.83;;
73650;SDS011;61944;52.538;6.108;2023-02-28T07:10:39;7.80;;;3.53;;
73650;SDS011;61944;52.538;6.108;2023-02-28T07:13:06;7.75;;;4.03;;
73650;SDS011;61944;52.538;6.108;2023-02-28T07:15:33;7.25;;;3.45;;
73650;SDS011;61944;52.538;6.108;2023-02-28T07:17:59;4.60;;;3.40;;
73650;SDS011;61944;52.538;6.108;2023-02-28T07:20:24;3.70;;;3.30;;
73650;SDS011;61944;52.538;6.108;2023-02-28T07:22:50;9.80;;;4.05;;
73650;SDS011;61944;52.538;6.108;2023-02-28T07:25:24;4.40;;;3.13;;
73650;SDS011;61944;52.538;6.108;2023-02-28T07:27:51;5.25;;;4.10;;
73650;SDS011;61944;52.538;6.108;2023-02-28T07:30:17;7.25;;;3.80;;
73650;SDS011;61944;52.538;6.108;2023-02-28T07:32:42;7.85;;;4.93;;
73650;SDS011;61944;52.538;6.108;2023-02-28T07:35:08;5.63;;;3.60;;
73650;SDS011;61944;52.538;6.108;2023-02-28T07:37:33;5.07;;;4.00;;
73650;SDS011;61944;52.538;6.108;2023-02-28T07:40:05;4.82;;;3.95;;
73650;SDS011;61944;52.538;6.108;2023-02-28T07:42:36;5.88;;;4.05;;
73650;SDS011;61944;52.538;6.108;2023-02-28T07:45:02;9.70;;;4.30;;
73650;SDS011;61944;52.538;6.108;2023-02-28T07:47:29;4.70;;;3.70;;
73650;SDS011;61944;52.538;6.108;2023-02-28T07:49:55;5.03;;;3.90;;
73650;SDS011;61944;52.538;6.108;2023-02-28T07:52:20;6.65;;;5.30;;
73650;SDS011;61944;52.538;6.108;2023-02-28T07:54:45;8.77;;;4.38;;
73650;SDS011;61944;52.538;6.108;2023-02-28T07:57:11;8.20;;;4.50;;
73650;SDS011;61944;52.538;6.108;2023-02-28T07:59:36;5.00;;;4.05;;
73650;SDS011;61944;52.538;6.108;2023-02-28T08:02:01;7.03;;;4.43;;
73650;SDS011;61944;52.538;6.108;2023-02-28T08:04:27;7.78;;;4.93;;
73650;SDS011;61944;52.538;6.108;2023-02-28T08:06:52;6.70;;;4.68;;
73650;SDS011;61944;52.538;6.108;2023-02-28T08:09:18;7.85;;;4.38;;
73650;SDS011;61944;52.538;6.108;2023-02-28T08:11:44;6.05;;;4.40;;
73650;SDS011;61944;52.538;6.108;2023-02-28T08:14:09;9.77;;;5.20;;
73650;SDS011;61944;52.538;6.108;2023-02-28T08:16:34;7.32;;;5.25;;
73650;SDS011;61944;52.538;6.108;2023-02-28T08:19:00;6.78;;;4.95;;
73650;SDS011;61944;52.538;6.108;2023-02-28T08:21:25;5.95;;;4.32;;
73650;SDS011;61944;52.538;6.108;2023-02-28T08:23:51;7.88;;;4.60;;
73650;SDS011;61944;52.538;6.108;2023-02-28T08:26:17;4.95;;;4.38;;
73650;SDS011;61944;52.538;6.108;2023-02-28T08:28:43;5.28;;;4.35;;
73650;SDS011;61944;52.538;6.108;2023-02-28T08:31:12;7.28;;;5.28;;
73650;SDS011;61944;52.538;6.108;2023-02-28T08:33:40;7.65;;;4.90;;
73650;SDS011;61944;52.538;6.108;2023-02-28T08:36:06;7.47;;;4.40;;
73650;SDS011;61944;52.538;6.108;2023-02-28T08:38:32;9.45;;;5.28;;
73650;SDS011;61944;52.538;6.108;2023-02-28T08:40:58;10.48;;;5.28;;
73650;SDS011;61944;52.538;6.108;2023-02-28T08:45:56;6.53;;;4.88;;
73650;SDS011;61944;52.538;6.108;2023-02-28T08:48:22;10.18;;;5.25;;
73650;SDS011;61944;52.538;6.108;2023-02-28T08:50:58;6.35;;;4.28;;
73650;SDS011;61944;52.538;6.108;2023-02-28T08:53:28;6.68;;;4.95;;
73650;SDS011;61944;52.538;6.108;2023-02-28T08:56:04;6.90;;;4.57;;
73650;SDS011;61944;52.538;6.108;2023-02-28T08:58:34;6.68;;;4.55;;
73650;SDS011;61944;52.538;6.108;2023-02-28T09:01:00;8.68;;;4.47;;
73650;SDS011;61944;52.538;6.108;2023-02-28T09:03:32;6.20;;;4.70;;
73650;SDS011;61944;52.538;6.108;2023-02-28T09:05:58;5.47;;;4.45;;
73650;SDS011;61944;52.538;6.108;2023-02-28T09:08:25;7.18;;;4.03;;
73650;SDS011;61944;52.538;6.108;2023-02-28T09:10:51;6.30;;;4.18;;
73650;SDS011;61944;52.538;6.108;2023-02-28T09:13:17;8.10;;;4.43;;
73650;SDS011;61944;52.538;6.108;2023-02-28T09:15:44;4.95;;;4.00;;
73650;SDS011;61944;52.538;6.108;2023-02-28T09:18:09;6.05;;;4.25;;
73650;SDS011;61944;52.538;6.108;2023-02-28T09:20:39;4.40;;;3.60;;
73650;SDS011;61944;52.538;6.108;2023-02-28T09:23:06;3.95;;;3.65;;
73650;SDS011;61944;52.538;6.108;2023-02-28T09:25:32;7.35;;;4.65;;
73650;SDS011;61944;52.538;6.108;2023-02-28T09:27:58;5.95;;;4.15;;
73650;SDS011;61944;52.538;6.108;2023-02-28T09:30:23;5.85;;;3.90;;
73650;SDS011;61944;52.538;6.108;2023-02-28T09:32:48;8.07;;;3.85;;
73650;SDS011;61944;52.538;6.108;2023-02-28T09:35:17;11.13;;;4.57;;
73650;SDS011;61944;52.538;6.108;2023-02-28T09:37:43;6.65;;;4.50;;
73650;SDS011;61944;52.538;6.108;2023-02-28T09:40:09;5.60;;;4.00;;
73650;SDS011;61944;52.538;6.108;2023-02-28T09:42:35;4.13;;;3.33;;
73650;SDS011;61944;52.538;6.108;2023-02-28T09:45:02;2.97;;;2.50;;
73650;SDS011;61944;52.538;6.108;2023-02-28T09:47:38;4.03;;;2.50;;
73650;SDS011;61944;52.538;6.108;2023-02-28T09:52:40;7.10;;;2.40;;
73650;SDS011;61944;52.538;6.108;2023-02-28T09:55:50;4.18;;;2.50;;
73650;SDS011;61944;52.538;6.108;2023-02-28T09:58:02;2.33;;;2.08;;
73650;SDS011;61944;52.538;6.108;2023-02-28T10:00:34;4.30;;;2.30;;
73650;SDS011;61944;52.538;6.108;2023-02-28T10:06:06;2.67;;;1.77;;
73650;SDS011;61944;52.538;6.108;2023-02-28T10:11:11;2.63;;;2.08;;
73650;SDS011;61944;52.538;6.108;2023-02-28T10:16:38;3.97;;;2.60;;
73650;SDS011;61944;52.538;6.108;2023-02-28T10:21:51;4.13;;;2.60;;
73650;SDS011;61944;52.538;6.108;2023-02-28T10:27:15;4.60;;;2.63;;
73650;SDS011;61944;52.538;6.108;2023-02-28T10:29:42;4.35;;;2.10;;
73650;SDS011;61944;52.538;6.108;2023-02-28T10:32:09;3.83;;;2.70;;
73650;SDS011;61944;52.538;6.108;2023-02-28T10:34:39;2.38;;;2.10;;
73650;SDS011;61944;52.538;6.108;2023-02-28T10:37:05;2.83;;;2.17;;
73650;SDS011;61944;52.538;6.108;2023-02-28T10:39:44;2.67;;;2.22;;
73650;SDS011;61944;52.538;6.108;2023-02-28T10:42:25;4.22;;;2.17;;
73650;SDS011;61944;52.538;6.108;2023-02-28T10:45:04;3.13;;;2.30;;
73650;SDS011;61944;52.538;6.108;2023-02-28T10:47:49;2.38;;;1.88;;
73650;SDS011;61944;52.538;6.108;2023-02-28T10:55:57;2.05;;;1.90;;
73650;SDS011;61944;52.538;6.108;2023-02-28T11:01:24;3.15;;;2.40;;
73650;SDS011;61944;52.538;6.108;2023-02-28T11:04:17;2.58;;;2.38;;
73650;SDS011;61944;52.538;6.108;2023-02-28T11:07:16;3.17;;;1.73;;
73650;SDS011;61944;52.538;6.108;2023-02-28T11:09:45;2.53;;;1.75;;
73650;SDS011;61944;52.538;6.108;2023-02-28T11:12:35;3.97;;;2.10;;
73650;SDS011;61944;52.538;6.108;2023-02-28T11:20:48;3.20;;;1.77;;
73650;SDS011;61944;52.538;6.108;2023-02-28T11:23:15;3.20;;;2.63;;
73650;SDS011;61944;52.538;6.108;2023-02-28T11:25:47;5.32;;;2.65;;
73650;SDS011;61944;52.538;6.108;2023-02-28T11:28:34;2.65;;;2.35;;
73650;SDS011;61944;52.538;6.108;2023-02-28T11:33:29;3.33;;;2.47;;
73650;SDS011;61944;52.538;6.108;2023-02-28T11:36:08;3.25;;;2.53;;
73650;SDS011;61944;52.538;6.108;2023-02-28T11:38:36;7.40;;;2.20;;
73650;SDS011;61944;52.538;6.108;2023-02-28T11:41:05;5.63;;;2.60;;
73650;SDS011;61944;52.538;6.108;2023-02-28T11:49:24;2.85;;;2.28;;
73650;SDS011;61944;52.538;6.108;2023-02-28T11:52:01;2.95;;;1.95;;
73650;SDS011;61944;52.538;6.108;2023-02-28T12:05:46;4.80;;;2.55;;
73650;SDS011;61944;52.538;6.108;2023-02-28T12:08:24;3.25;;;2.42;;
73650;SDS011;61944;52.538;6.108;2023-02-28T12:13:58;4.43;;;2.53;;
73650;SDS011;61944;52.538;6.108;2023-02-28T12:16:59;2.30;;;2.10;;
73650;SDS011;61944;52.538;6.108;2023-02-28T12:27:52;2.30;;;2.10;;
73650;SDS011;61944;52.538;6.108;2023-02-28T12:30:24;5.07;;;2.35;;
73650;SDS011;61944;52.538;6.108;2023-02-28T12:33:00;2.95;;;2.25;;
73650;SDS011;61944;52.538;6.108;2023-02-28T12:35:56;3.17;;;2.78;;
73650;SDS011;61944;52.538;6.108;2023-02-28T12:41:19;4.85;;;2.40;;
73650;SDS011;61944;52.538;6.108;2023-02-28T12:43:57;3.80;;;2.58;;
73650;SDS011;61944;52.538;6.108;2023-02-28T12:46:29;2.83;;;2.38;;
73650;SDS011;61944;52.538;6.108;2023-02-28T12:49:00;3.70;;;2.30;;
73650;SDS011;61944;52.538;6.108;2023-02-28T12:51:31;5.22;;;2.92;;
73650;SDS011;61944;52.538;6.108;2023-02-28T12:57:08;3.17;;;2.88;;
73650;SDS011;61944;52.538;6.108;2023-02-28T12:59:44;2.22;;;1.98;;
73650;SDS011;61944;52.538;6.108;2023-02-28T13:10:52;3.97;;;2.60;;
73650;SDS011;61944;52.538;6.108;2023-02-28T13:13:21;3.30;;;2.83;;
73650;SDS011;61944;52.538;6.108;2023-02-28T13:15:58;2.50;;;2.30;;
73650;SDS011;61944;52.538;6.108;2023-02-28T13:18:37;3.35;;;2.33;;
73650;SDS011;61944;52.538;6.108;2023-02-28T13:21:04;7.30;;;2.72;;
73650;SDS011;61944;52.538;6.108;2023-02-28T13:23:39;4.20;;;3.35;;
73650;SDS011;61944;52.538;6.108;2023-02-28T13:26:24;4.25;;;2.42;;
73650;SDS011;61944;52.538;6.108;2023-02-28T13:42:34;3.47;;;3.08;;
73650;SDS011;61944;52.538;6.108;2023-02-28T13:53:01;2.88;;;2.65;;
73650;SDS011;61944;52.538;6.108;2023-02-28T13:59:01;2.75;;;2.10;;
73650;SDS011;61944;52.538;6.108;2023-02-28T14:02:17;3.15;;;2.50;;
73650;SDS011;61944;52.538;6.108;2023-02-28T14:07:08;3.47;;;2.45;;
73650;SDS011;61944;52.538;6.108;2023-02-28T14:09:44;5.45;;;2.85;;
73650;SDS011;61944;52.538;6.108;2023-02-28T14:18:26;4.55;;;3.28;;
73650;SDS011;61944;52.538;6.108;2023-02-28T14:20:58;4.93;;;3.50;;
73650;SDS011;61944;52.538;6.108;2023-02-28T14:26:28;3.30;;;2.28;;
73650;SDS011;61944;52.538;6.108;2023-02-28T14:37:39;4.22;;;2.92;;
73650;SDS011;61944;52.538;6.108;2023-02-28T14:40:14;5.32;;;2.97;;
73650;SDS011;61944;52.538;6.108;2023-02-28T14:42:46;6.75;;;3.75;;
73650;SDS011;61944;52.538;6.108;2023-02-28T14:45:19;5.70;;;3.00;;
73650;SDS011;61944;52.538;6.108;2023-02-28T14:47:46;4.60;;;3.10;;
73650;SDS011;61944;52.538;6.108;2023-02-28T14:50:22;3.47;;;2.70;;
73650;SDS011;61944;52.538;6.108;2023-02-28T14:52:55;3.08;;;2.70;;
73650;SDS011;61944;52.538;6.108;2023-02-28T14:55:24;3.88;;;3.20;;
73650;SDS011;61944;52.538;6.108;2023-02-28T14:57:54;4.93;;;3.05;;
73650;SDS011;61944;52.538;6.108;2023-02-28T15:02:48;3.78;;;3.10;;
73650;SDS011;61944;52.538;6.108;2023-02-28T15:07:42;3.28;;;2.63;;
73650;SDS011;61944;52.538;6.108;2023-02-28T15:12:56;4.53;;;3.10;;
73650;SDS011;61944;52.538;6.108;2023-02-28T15:15:43;3.92;;;3.25;;
73650;SDS011;61944;52.538;6.108;2023-02-28T15:18:19;4.10;;;3.30;;
73650;SDS011;61944;52.538;6.108;2023-02-28T15:21:08;5.55;;;3.00;;
73650;SDS011;61944;52.538;6.108;2023-02-28T15:23:37;3.60;;;3.15;;
73650;SDS011;61944;52.538;6.108;2023-02-28T15:26:05;3.35;;;3.05;;
73650;SDS011;61944;52.538;6.108;2023-02-28T15:28:31;4.57;;;3.70;;
73650;SDS011;61944;52.538;6.108;2023-02-28T15:31:01;4.40;;;3.00;;
73650;SDS011;61944;52.538;6.108;2023-02-28T15:33:32;3.05;;;2.75;;
73650;SDS011;61944;52.538;6.108;2023-02-28T15:36:05;5.63;;;3.00;;
73650;SDS011;61944;52.538;6.108;2023-02-28T15:38:36;4.50;;;3.40;;
73650;SDS011;61944;52.538;6.108;2023-02-28T15:41:02;4.30;;;3.13;;
73650;SDS011;61944;52.538;6.108;2023-02-28T15:43:34;5.05;;;3.30;;
73650;SDS011;61944;52.538;6.108;2023-02-28T15:46:01;5.32;;;3.15;;
73650;SDS011;61944;52.538;6.108;2023-02-28T15:48:36;4.85;;;3.05;;
73650;SDS011;61944;52.538;6.108;2023-02-28T15:51:08;3.42;;;2.85;;
73650;SDS011;61944;52.538;6.108;2023-02-28T15:53:49;7.47;;;3.78;;
73650;SDS011;61944;52.538;6.108;2023-02-28T15:58:58;6.50;;;3.55;;
73650;SDS011;61944;52.538;6.108;2023-02-28T16:04:00;4.88;;;3.08;;
73650;SDS011;61944;52.538;6.108;2023-02-28T16:09:02;4.85;;;3.60;;
73650;SDS011;61944;52.538;6.108;2023-02-28T16:11:30;4.65;;;3.70;;
73650;SDS011;61944;52.538;6.108;2023-02-28T16:13:57;5.78;;;3.70;;
73650;SDS011;61944;52.538;6.108;2023-02-28T16:16:24;5.15;;;3.83;;
73650;SDS011;61944;52.538;6.108;2023-02-28T16:18:51;5.50;;;3.67;;
73650;SDS011;61944;52.538;6.108;2023-02-28T16:21:17;5.57;;;3.70;;
73650;SDS011;61944;52.538;6.108;2023-02-28T16:23:42;7.50;;;3.40;;
73650;SDS011;61944;52.538;6.108;2023-02-28T16:26:08;4.55;;;3.58;;
73650;SDS011;61944;52.538;6.108;2023-02-28T16:31:06;4.22;;;3.47;;
73650;SDS011;61944;52.538;6.108;2023-02-28T16:33:32;4.68;;;3.88;;
73650;SDS011;61944;52.538;6.108;2023-02-28T16:35:58;5.55;;;4.05;;
73650;SDS011;61944;52.538;6.108;2023-02-28T16:38:24;5.05;;;3.33;;
73650;SDS011;61944;52.538;6.108;2023-02-28T16:40:50;5.88;;;4.03;;
73650;SDS011;61944;52.538;6.108;2023-02-28T16:43:22;4.78;;;4.03;;
73650;SDS011;61944;52.538;6.108;2023-02-28T16:45:59;5.60;;;4.88;;
73650;SDS011;61944;52.538;6.108;2023-02-28T16:48:26;4.75;;;4.13;;
73650;SDS011;61944;52.538;6.108;2023-02-28T16:50:51;5.47;;;4.30;;
73650;SDS011;61944;52.538;6.108;2023-02-28T16:53:17;5.32;;;3.83;;
73650;SDS011;61944;52.538;6.108;2023-02-28T16:55:42;7.53;;;4.40;;
73650;SDS011;61944;52.538;6.108;2023-02-28T16:58:10;7.72;;;4.50;;
73650;SDS011;61944;52.538;6.108;2023-02-28T17:00:40;6.68;;;4.88;;
73650;SDS011;61944;52.538;6.108;2023-02-28T17:03:07;6.45;;;4.45;;
73650;SDS011;61944;52.538;6.108;2023-02-28T17:05:43;7.57;;;4.05;;
73650;SDS011;61944;52.538;6.108;2023-02-28T17:08:09;5.47;;;4.47;;
73650;SDS011;61944;52.538;6.108;2023-02-28T17:10:35;8.77;;;5.65;;
73650;SDS011;61944;52.538;6.108;2023-02-28T17:13:01;6.28;;;4.97;;
73650;SDS011;61944;52.538;6.108;2023-02-28T17:15:26;6.97;;;4.90;;
73650;SDS011;61944;52.538;6.108;2023-02-28T17:17:51;5.70;;;4.68;;
73650;SDS011;61944;52.538;6.108;2023-02-28T17:20:19;5.90;;;4.53;;
73650;SDS011;61944;52.538;6.108;2023-02-28T17:22:50;6.63;;;4.85;;
73650;SDS011;61944;52.538;6.108;2023-02-28T17:25:16;7.60;;;5.22;;
73650;SDS011;61944;52.538;6.108;2023-02-28T17:27:42;12.07;;;5.88;;
73650;SDS011;61944;52.538;6.108;2023-02-28T17:32:41;8.40;;;6.03;;
73650;SDS011;61944;52.538;6.108;2023-02-28T17:35:06;9.23;;;5.88;;
73650;SDS011;61944;52.538;6.108;2023-02-28T17:37:32;8.45;;;6.28;;
73650;SDS011;61944;52.538;6.108;2023-02-28T17:39:58;10.02;;;6.45;;
73650;SDS011;61944;52.538;6.108;2023-02-28T17:42:23;11.27;;;7.25;;
73650;SDS011;61944;52.538;6.108;2023-02-28T17:44:48;7.28;;;6.40;;
73650;SDS011;61944;52.538;6.108;2023-02-28T17:47:14;10.30;;;6.85;;
73650;SDS011;61944;52.538;6.108;2023-02-28T17:49:39;10.00;;;6.85;;
73650;SDS011;61944;52.538;6.108;2023-02-28T17:52:04;9.32;;;6.75;;
73650;SDS011;61944;52.538;6.108;2023-02-28T17:54:30;8.35;;;6.65;;
73650;SDS011;61944;52.538;6.108;2023-02-28T17:56:56;7.68;;;6.75;;
73650;SDS011;61944;52.538;6.108;2023-02-28T17:59:21;8.40;;;6.32;;